aviador You're here:

LFBP Decoded Metar

PAU in FRANCE
Report Time2018-06-19 06:30:00
UTC Time2018-06-19 06:48:10
Flight Rules mvfr MVFR
WindVRB at 03 kt
Visibility9999 m
Phenomena:N/A
Clouds:Few 013 Hf
Scattered 029 Hf
Expected CloudBase > 1,200 ft AGL from Temp-Dew spread
Ceiling1,400 ft
Temp18°C (ISA +4)
Dew Point15°C (83% RH)
QNH1025 hPa
Density Alt925 ft
Elevation607 ft
Report Wrong Elevation
Raw Report
METAR LFBP 190630Z AUTO VRB03KT 9999 FEW013 SCT029 18/15 Q1025 TEMPO
BKN014=

Extra information for LFBP:More info

Metar Taf Metar & Taf Last 4 Metars F.Rules Stats Wind Profile Meteogram Temp Stats Airport Information Weather charts Add Link Nearby VenuesMetar ALERT Operation Metar Decoded Social comments